Kambalda/Lake Lefroy, Australia
Current Conditions -  °F | °C
As of 12:32 PM on Saturday 20 Dec 2014 (Local Time) from YPKG Reporting Station
Scattered Clouds Scattered Clouds  
Wind Chill: 99°   Ceiling: Unl
Heat Index: 99°   Visibility: 6mi
Dew Point: 57°   Wind: 17mph
Humidity: 25%   Direction: 360°N
Pressure: 29.71"   Gusts: NA
Location:  31.17°S, 121.62°E
Report Text: YPKG 200432Z AUTO 36015KT 9999 // SCT076 37/14 Q1006
Loading
Personal Weather Stations






























Interactive Weather Map New forecast layout! Learn more

10-Day Weather Forecast

Advertisements
Track Severe Weather on mobile